Terminal Aerodrome Forecast
Issued by NWS

Home | Current Version | Previous Version | Text Only | Print | Product List | Glossary On
Versions: 1 2 3 4 5 6 7 8 9 10 11 12 13 14 15 16 17
000
FTUS41 KCAR 280100 AAA
TAFFVE
TAF AMD
KFVE 280147Z 2802/2824 19006KT 1SM BR OVC002
     FM280600 17010KT 1/2SM FG VV001
     FM281400 15007KT P6SM OVC008
     FM281800 13007KT 5SM -RA BR OVC012
     FM282200 12006KT 3SM -RA BR OVC008=

USA.gov is the U.S. government's official web portal to all federal, state and local government web resources and services.